sensor_id;sensor_type;location;lat;lon;timestamp;P1;durP1;ratioP1;P2;durP2;ratioP2
40515;SDS011;26216;53.724;9.898;2024-02-21T00:02:20;18.15;;;10.82;;
40515;SDS011;26216;53.724;9.898;2024-02-21T00:04:46;16.17;;;11.63;;
40515;SDS011;26216;53.724;9.898;2024-02-21T00:07:13;16.98;;;11.15;;
40515;SDS011;26216;53.724;9.898;2024-02-21T00:09:39;20.05;;;12.10;;
40515;SDS011;26216;53.724;9.898;2024-02-21T00:12:09;19.42;;;11.90;;
40515;SDS011;26216;53.724;9.898;2024-02-21T00:14:38;18.65;;;11.68;;
40515;SDS011;26216;53.724;9.898;2024-02-21T00:17:06;17.08;;;11.73;;
40515;SDS011;26216;53.724;9.898;2024-02-21T00:19:36;17.13;;;10.63;;
40515;SDS011;26216;53.724;9.898;2024-02-21T00:22:02;20.13;;;11.95;;
40515;SDS011;26216;53.724;9.898;2024-02-21T00:24:30;19.08;;;11.52;;
40515;SDS011;26216;53.724;9.898;2024-02-21T00:26:57;18.05;;;12.45;;
40515;SDS011;26216;53.724;9.898;2024-02-21T00:29:26;18.40;;;12.38;;
40515;SDS011;26216;53.724;9.898;2024-02-21T00:31:55;20.85;;;13.13;;
40515;SDS011;26216;53.724;9.898;2024-02-21T00:34:24;18.10;;;11.45;;
40515;SDS011;26216;53.724;9.898;2024-02-21T00:36:50;17.70;;;11.20;;
40515;SDS011;26216;53.724;9.898;2024-02-21T00:39:15;17.08;;;11.60;;
40515;SDS011;26216;53.724;9.898;2024-02-21T00:41:41;18.02;;;11.32;;
40515;SDS011;26216;53.724;9.898;2024-02-21T00:44:07;25.38;;;12.38;;
40515;SDS011;26216;53.724;9.898;2024-02-21T00:46:38;19.52;;;11.20;;
40515;SDS011;26216;53.724;9.898;2024-02-21T00:49:05;20.77;;;11.38;;
40515;SDS011;26216;53.724;9.898;2024-02-21T00:51:32;21.52;;;12.88;;
40515;SDS011;26216;53.724;9.898;2024-02-21T00:53:58;17.92;;;12.00;;
40515;SDS011;26216;53.724;9.898;2024-02-21T00:56:24;19.45;;;13.32;;
40515;SDS011;26216;53.724;9.898;2024-02-21T00:58:54;21.65;;;12.40;;
40515;SDS011;26216;53.724;9.898;2024-02-21T01:01:26;19.00;;;11.50;;
40515;SDS011;26216;53.724;9.898;2024-02-21T01:03:53;16.17;;;11.90;;
40515;SDS011;26216;53.724;9.898;2024-02-21T01:06:22;17.27;;;12.57;;
40515;SDS011;26216;53.724;9.898;2024-02-21T01:08:51;19.92;;;12.30;;
40515;SDS011;26216;53.724;9.898;2024-02-21T01:11:24;19.35;;;13.18;;
40515;SDS011;26216;53.724;9.898;2024-02-21T01:13:50;19.83;;;12.20;;
40515;SDS011;26216;53.724;9.898;2024-02-21T01:16:19;18.95;;;12.35;;
40515;SDS011;26216;53.724;9.898;2024-02-21T01:18:48;15.80;;;10.60;;
40515;SDS011;26216;53.724;9.898;2024-02-21T01:21:14;19.63;;;11.63;;
40515;SDS011;26216;53.724;9.898;2024-02-21T01:23:40;20.45;;;12.00;;
40515;SDS011;26216;53.724;9.898;2024-02-21T01:26:09;18.33;;;12.25;;
40515;SDS011;26216;53.724;9.898;2024-02-21T01:28:40;14.63;;;11.00;;
40515;SDS011;26216;53.724;9.898;2024-02-21T01:31:07;15.57;;;11.35;;
40515;SDS011;26216;53.724;9.898;2024-02-21T01:33:33;16.60;;;11.52;;
40515;SDS011;26216;53.724;9.898;2024-02-21T01:36:04;17.30;;;11.05;;
40515;SDS011;26216;53.724;9.898;2024-02-21T01:38:34;16.83;;;11.27;;
40515;SDS011;26216;53.724;9.898;2024-02-21T01:41:03;19.33;;;11.10;;
40515;SDS011;26216;53.724;9.898;2024-02-21T01:43:29;15.45;;;9.77;;
40515;SDS011;26216;53.724;9.898;2024-02-21T01:45:55;14.65;;;10.35;;
40515;SDS011;26216;53.724;9.898;2024-02-21T01:48:25;17.60;;;12.50;;
40515;SDS011;26216;53.724;9.898;2024-02-21T01:50:52;18.08;;;11.57;;
40515;SDS011;26216;53.724;9.898;2024-02-21T01:53:20;17.70;;;12.25;;
40515;SDS011;26216;53.724;9.898;2024-02-21T01:55:56;15.80;;;11.55;;
40515;SDS011;26216;53.724;9.898;2024-02-21T01:58:23;18.33;;;11.82;;
40515;SDS011;26216;53.724;9.898;2024-02-21T02:00:49;19.98;;;10.95;;
40515;SDS011;26216;53.724;9.898;2024-02-21T02:03:21;18.25;;;11.57;;
40515;SDS011;26216;53.724;9.898;2024-02-21T02:05:49;17.50;;;11.32;;
40515;SDS011;26216;53.724;9.898;2024-02-21T02:08:16;19.20;;;12.82;;
40515;SDS011;26216;53.724;9.898;2024-02-21T02:10:43;18.58;;;12.55;;
40515;SDS011;26216;53.724;9.898;2024-02-21T02:13:11;19.23;;;11.60;;
40515;SDS011;26216;53.724;9.898;2024-02-21T02:15:46;17.13;;;10.88;;
40515;SDS011;26216;53.724;9.898;2024-02-21T02:18:16;14.40;;;10.73;;
40515;SDS011;26216;53.724;9.898;2024-02-21T02:20:44;15.85;;;11.73;;
40515;SDS011;26216;53.724;9.898;2024-02-21T02:23:32;20.27;;;13.52;;
40515;SDS011;26216;53.724;9.898;2024-02-21T02:25:58;13.73;;;10.30;;
40515;SDS011;26216;53.724;9.898;2024-02-21T02:28:26;22.67;;;12.73;;
40515;SDS011;26216;53.724;9.898;2024-02-21T02:30:52;16.85;;;11.75;;
40515;SDS011;26216;53.724;9.898;2024-02-21T02:33:18;16.95;;;11.60;;
40515;SDS011;26216;53.724;9.898;2024-02-21T02:35:44;15.15;;;10.65;;
40515;SDS011;26216;53.724;9.898;2024-02-21T02:38:15;18.90;;;10.75;;
40515;SDS011;26216;53.724;9.898;2024-02-21T02:40:41;16.88;;;11.25;;
40515;SDS011;26216;53.724;9.898;2024-02-21T02:43:07;16.58;;;11.60;;
40515;SDS011;26216;53.724;9.898;2024-02-21T02:45:33;14.73;;;10.85;;
40515;SDS011;26216;53.724;9.898;2024-02-21T02:48:00;17.17;;;12.05;;
40515;SDS011;26216;53.724;9.898;2024-02-21T02:50:26;21.08;;;14.55;;
40515;SDS011;26216;53.724;9.898;2024-02-21T02:52:53;16.55;;;12.50;;
40515;SDS011;26216;53.724;9.898;2024-02-21T02:55:20;18.65;;;12.20;;
40515;SDS011;26216;53.724;9.898;2024-02-21T02:57:46;16.38;;;12.82;;
40515;SDS011;26216;53.724;9.898;2024-02-21T03:00:13;16.30;;;12.52;;
40515;SDS011;26216;53.724;9.898;2024-02-21T03:02:41;18.30;;;12.23;;
40515;SDS011;26216;53.724;9.898;2024-02-21T03:05:12;18.25;;;13.38;;
40515;SDS011;26216;53.724;9.898;2024-02-21T03:07:40;22.17;;;14.63;;
40515;SDS011;26216;53.724;9.898;2024-02-21T03:10:06;16.25;;;12.32;;
40515;SDS011;26216;53.724;9.898;2024-02-21T03:12:33;18.90;;;12.40;;
40515;SDS011;26216;53.724;9.898;2024-02-21T03:14:59;19.90;;;12.88;;
40515;SDS011;26216;53.724;9.898;2024-02-21T03:17:29;18.90;;;13.13;;
40515;SDS011;26216;53.724;9.898;2024-02-21T03:19:55;16.90;;;13.13;;
40515;SDS011;26216;53.724;9.898;2024-02-21T03:22:25;17.27;;;12.90;;
40515;SDS011;26216;53.724;9.898;2024-02-21T03:25:00;19.20;;;13.77;;
40515;SDS011;26216;53.724;9.898;2024-02-21T03:27:26;21.67;;;14.40;;
40515;SDS011;26216;53.724;9.898;2024-02-21T03:29:52;20.65;;;14.15;;
40515;SDS011;26216;53.724;9.898;2024-02-21T03:32:19;18.85;;;12.55;;
40515;SDS011;26216;53.724;9.898;2024-02-21T03:34:45;16.98;;;12.30;;
40515;SDS011;26216;53.724;9.898;2024-02-21T03:37:10;22.10;;;14.05;;
40515;SDS011;26216;53.724;9.898;2024-02-21T03:39:39;19.67;;;13.63;;
40515;SDS011;26216;53.724;9.898;2024-02-21T03:42:13;17.42;;;11.95;;
40515;SDS011;26216;53.724;9.898;2024-02-21T03:44:39;17.85;;;12.25;;
40515;SDS011;26216;53.724;9.898;2024-02-21T03:47:05;19.65;;;12.85;;
40515;SDS011;26216;53.724;9.898;2024-02-21T03:49:31;20.92;;;12.95;;
40515;SDS011;26216;53.724;9.898;2024-02-21T03:52:00;15.63;;;10.40;;
40515;SDS011;26216;53.724;9.898;2024-02-21T03:54:26;16.20;;;12.05;;
40515;SDS011;26216;53.724;9.898;2024-02-21T03:56:52;14.15;;;10.82;;
40515;SDS011;26216;53.724;9.898;2024-02-21T03:59:19;13.95;;;10.65;;
40515;SDS011;26216;53.724;9.898;2024-02-21T04:01:44;14.90;;;10.95;;
40515;SDS011;26216;53.724;9.898;2024-02-21T04:04:11;18.00;;;12.00;;
40515;SDS011;26216;53.724;9.898;2024-02-21T04:06:47;19.60;;;13.05;;
40515;SDS011;26216;53.724;9.898;2024-02-21T04:09:14;15.95;;;11.77;;
40515;SDS011;26216;53.724;9.898;2024-02-21T04:11:40;15.15;;;10.52;;
40515;SDS011;26216;53.724;9.898;2024-02-21T04:14:07;14.82;;;10.98;;
40515;SDS011;26216;53.724;9.898;2024-02-21T04:16:34;15.75;;;11.43;;
40515;SDS011;26216;53.724;9.898;2024-02-21T04:19:00;15.02;;;9.77;;
40515;SDS011;26216;53.724;9.898;2024-02-21T04:21:27;15.73;;;9.90;;
40515;SDS011;26216;53.724;9.898;2024-02-21T04:23:53;14.85;;;10.60;;
40515;SDS011;26216;53.724;9.898;2024-02-21T04:26:22;15.02;;;9.98;;
40515;SDS011;26216;53.724;9.898;2024-02-21T04:28:49;13.43;;;9.55;;
40515;SDS011;26216;53.724;9.898;2024-02-21T04:31:15;13.10;;;9.30;;
40515;SDS011;26216;53.724;9.898;2024-02-21T04:33:41;11.77;;;10.20;;
40515;SDS011;26216;53.724;9.898;2024-02-21T04:36:08;14.23;;;9.50;;
40515;SDS011;26216;53.724;9.898;2024-02-21T04:38:37;11.43;;;8.68;;
40515;SDS011;26216;53.724;9.898;2024-02-21T04:41:04;12.60;;;9.27;;
40515;SDS011;26216;53.724;9.898;2024-02-21T04:43:31;12.88;;;9.90;;
40515;SDS011;26216;53.724;9.898;2024-02-21T04:45:57;11.85;;;8.05;;
40515;SDS011;26216;53.724;9.898;2024-02-21T04:48:22;9.85;;;7.85;;
40515;SDS011;26216;53.724;9.898;2024-02-21T04:50:58;9.40;;;8.15;;
40515;SDS011;26216;53.724;9.898;2024-02-21T04:53:24;11.18;;;8.27;;
40515;SDS011;26216;53.724;9.898;2024-02-21T04:55:50;12.88;;;8.57;;
40515;SDS011;26216;53.724;9.898;2024-02-21T04:58:16;11.88;;;8.35;;
40515;SDS011;26216;53.724;9.898;2024-02-21T05:00:42;9.65;;;7.32;;
40515;SDS011;26216;53.724;9.898;2024-02-21T05:03:08;10.35;;;7.43;;
40515;SDS011;26216;53.724;9.898;2024-02-21T05:05:34;10.52;;;7.78;;
40515;SDS011;26216;53.724;9.898;2024-02-21T05:08:01;8.93;;;7.05;;
40515;SDS011;26216;53.724;9.898;2024-02-21T05:10:27;8.73;;;6.63;;
40515;SDS011;26216;53.724;9.898;2024-02-21T05:12:56;9.35;;;7.32;;
40515;SDS011;26216;53.724;9.898;2024-02-21T05:15:22;9.73;;;7.55;;
40515;SDS011;26216;53.724;9.898;2024-02-21T05:17:48;9.52;;;7.30;;
40515;SDS011;26216;53.724;9.898;2024-02-21T05:20:14;9.07;;;6.38;;
40515;SDS011;26216;53.724;9.898;2024-02-21T05:22:40;10.25;;;6.65;;
40515;SDS011;26216;53.724;9.898;2024-02-21T05:25:07;8.32;;;6.80;;
40515;SDS011;26216;53.724;9.898;2024-02-21T05:27:33;8.02;;;6.00;;
40515;SDS011;26216;53.724;9.898;2024-02-21T05:30:00;8.23;;;5.20;;
40515;SDS011;26216;53.724;9.898;2024-02-21T05:32:26;6.90;;;5.70;;
40515;SDS011;26216;53.724;9.898;2024-02-21T05:34:52;6.07;;;4.80;;
40515;SDS011;26216;53.724;9.898;2024-02-21T05:37:18;7.75;;;5.85;;
40515;SDS011;26216;53.724;9.898;2024-02-21T05:39:47;6.95;;;5.35;;
40515;SDS011;26216;53.724;9.898;2024-02-21T05:42:13;5.78;;;4.78;;
40515;SDS011;26216;53.724;9.898;2024-02-21T05:44:39;8.50;;;5.88;;
40515;SDS011;26216;53.724;9.898;2024-02-21T05:47:08;7.30;;;5.63;;
40515;SDS011;26216;53.724;9.898;2024-02-21T05:49:35;7.03;;;4.93;;
40515;SDS011;26216;53.724;9.898;2024-02-21T05:52:02;6.63;;;4.95;;
40515;SDS011;26216;53.724;9.898;2024-02-21T05:54:28;5.20;;;4.50;;
40515;SDS011;26216;53.724;9.898;2024-02-21T05:56:54;6.53;;;4.78;;
40515;SDS011;26216;53.724;9.898;2024-02-21T05:59:20;6.20;;;4.50;;
40515;SDS011;26216;53.724;9.898;2024-02-21T06:01:58;6.63;;;4.75;;
40515;SDS011;26216;53.724;9.898;2024-02-21T06:04:23;10.45;;;5.88;;
40515;SDS011;26216;53.724;9.898;2024-02-21T06:06:50;6.47;;;5.03;;
40515;SDS011;26216;53.724;9.898;2024-02-21T06:09:16;6.20;;;4.95;;
40515;SDS011;26216;53.724;9.898;2024-02-21T06:11:51;4.63;;;3.88;;
40515;SDS011;26216;53.724;9.898;2024-02-21T06:14:17;4.93;;;3.90;;
40515;SDS011;26216;53.724;9.898;2024-02-21T06:16:43;4.95;;;4.05;;
40515;SDS011;26216;53.724;9.898;2024-02-21T06:19:09;4.50;;;4.00;;
40515;SDS011;26216;53.724;9.898;2024-02-21T06:21:35;5.25;;;3.85;;
40515;SDS011;26216;53.724;9.898;2024-02-21T06:24:02;5.85;;;4.40;;
40515;SDS011;26216;53.724;9.898;2024-02-21T06:26:28;4.85;;;3.75;;
40515;SDS011;26216;53.724;9.898;2024-02-21T06:28:54;3.88;;;3.35;;
40515;SDS011;26216;53.724;9.898;2024-02-21T06:31:20;4.32;;;3.20;;
40515;SDS011;26216;53.724;9.898;2024-02-21T06:33:52;5.15;;;3.20;;
40515;SDS011;26216;53.724;9.898;2024-02-21T06:36:18;5.78;;;3.60;;
40515;SDS011;26216;53.724;9.898;2024-02-21T06:38:45;4.22;;;2.97;;
40515;SDS011;26216;53.724;9.898;2024-02-21T06:41:15;6.10;;;3.40;;
40515;SDS011;26216;53.724;9.898;2024-02-21T06:43:45;3.85;;;2.83;;
40515;SDS011;26216;53.724;9.898;2024-02-21T06:46:12;6.00;;;3.10;;
40515;SDS011;26216;53.724;9.898;2024-02-21T06:48:48;3.67;;;2.65;;
40515;SDS011;26216;53.724;9.898;2024-02-21T06:51:17;3.67;;;2.47;;
40515;SDS011;26216;53.724;9.898;2024-02-21T06:53:44;3.55;;;2.38;;
40515;SDS011;26216;53.724;9.898;2024-02-21T06:56:11;4.80;;;2.63;;
40515;SDS011;26216;53.724;9.898;2024-02-21T06:58:36;3.72;;;2.92;;
40515;SDS011;26216;53.724;9.898;2024-02-21T07:01:03;4.50;;;2.75;;
40515;SDS011;26216;53.724;9.898;2024-02-21T07:03:29;4.63;;;2.50;;
40515;SDS011;26216;53.724;9.898;2024-02-21T07:05:55;4.85;;;3.13;;
40515;SDS011;26216;53.724;9.898;2024-02-21T07:08:21;7.35;;;3.35;;
40515;SDS011;26216;53.724;9.898;2024-02-21T07:10:47;6.60;;;3.03;;
40515;SDS011;26216;53.724;9.898;2024-02-21T07:13:13;6.43;;;2.70;;
40515;SDS011;26216;53.724;9.898;2024-02-21T07:15:41;5.55;;;2.25;;
40515;SDS011;26216;53.724;9.898;2024-02-21T07:18:07;3.78;;;2.30;;
40515;SDS011;26216;53.724;9.898;2024-02-21T07:20:33;4.25;;;2.33;;
40515;SDS011;26216;53.724;9.898;2024-02-21T07:23:08;8.80;;;3.50;;
40515;SDS011;26216;53.724;9.898;2024-02-21T07:25:34;8.82;;;4.15;;
40515;SDS011;26216;53.724;9.898;2024-02-21T07:28:03;6.45;;;3.20;;
40515;SDS011;26216;53.724;9.898;2024-02-21T07:30:31;5.95;;;2.92;;
40515;SDS011;26216;53.724;9.898;2024-02-21T07:32:56;6.97;;;2.70;;
40515;SDS011;26216;53.724;9.898;2024-02-21T07:35:22;6.32;;;2.63;;
40515;SDS011;26216;53.724;9.898;2024-02-21T07:37:48;7.22;;;2.90;;
40515;SDS011;26216;53.724;9.898;2024-02-21T07:40:15;6.68;;;2.83;;
40515;SDS011;26216;53.724;9.898;2024-02-21T07:42:43;8.48;;;2.88;;
40515;SDS011;26216;53.724;9.898;2024-02-21T07:45:10;6.35;;;2.72;;
40515;SDS011;26216;53.724;9.898;2024-02-21T07:47:36;6.57;;;2.63;;
40515;SDS011;26216;53.724;9.898;2024-02-21T07:50:03;7.90;;;2.75;;
40515;SDS011;26216;53.724;9.898;2024-02-21T07:52:33;8.02;;;3.35;;
40515;SDS011;26216;53.724;9.898;2024-02-21T07:54:59;8.23;;;3.20;;
40515;SDS011;26216;53.724;9.898;2024-02-21T07:57:25;7.13;;;3.20;;
40515;SDS011;26216;53.724;9.898;2024-02-21T07:59:52;11.88;;;3.15;;
40515;SDS011;26216;53.724;9.898;2024-02-21T08:02:18;8.55;;;3.38;;
40515;SDS011;26216;53.724;9.898;2024-02-21T08:04:44;8.82;;;2.97;;
40515;SDS011;26216;53.724;9.898;2024-02-21T08:07:11;7.38;;;2.47;;
40515;SDS011;26216;53.724;9.898;2024-02-21T08:09:39;7.65;;;2.95;;
40515;SDS011;26216;53.724;9.898;2024-02-21T08:12:05;8.93;;;2.75;;
40515;SDS011;26216;53.724;9.898;2024-02-21T08:14:32;7.90;;;2.55;;
40515;SDS011;26216;53.724;9.898;2024-02-21T08:16:59;10.90;;;3.33;;
40515;SDS011;26216;53.724;9.898;2024-02-21T08:19:25;11.73;;;3.20;;
40515;SDS011;26216;53.724;9.898;2024-02-21T08:21:52;9.38;;;3.00;;
40515;SDS011;26216;53.724;9.898;2024-02-21T08:24:21;10.57;;;3.03;;
40515;SDS011;26216;53.724;9.898;2024-02-21T08:26:48;5.35;;;2.30;;
40515;SDS011;26216;53.724;9.898;2024-02-21T08:29:14;6.05;;;2.00;;
40515;SDS011;26216;53.724;9.898;2024-02-21T08:31:41;6.88;;;2.40;;
40515;SDS011;26216;53.724;9.898;2024-02-21T08:34:07;11.80;;;3.40;;
40515;SDS011;26216;53.724;9.898;2024-02-21T08:36:36;7.53;;;2.33;;
40515;SDS011;26216;53.724;9.898;2024-02-21T08:39:02;11.20;;;3.05;;
40515;SDS011;26216;53.724;9.898;2024-02-21T08:41:33;10.55;;;3.67;;
40515;SDS011;26216;53.724;9.898;2024-02-21T08:43:59;8.93;;;2.50;;
40515;SDS011;26216;53.724;9.898;2024-02-21T08:46:26;9.40;;;2.45;;
40515;SDS011;26216;53.724;9.898;2024-02-21T08:48:56;9.55;;;2.97;;
40515;SDS011;26216;53.724;9.898;2024-02-21T08:51:22;16.63;;;3.08;;
40515;SDS011;26216;53.724;9.898;2024-02-21T08:53:48;11.50;;;2.70;;
40515;SDS011;26216;53.724;9.898;2024-02-21T08:56:15;8.73;;;2.45;;
40515;SDS011;26216;53.724;9.898;2024-02-21T08:58:41;11.02;;;2.35;;
40515;SDS011;26216;53.724;9.898;2024-02-21T09:01:07;7.35;;;2.33;;
40515;SDS011;26216;53.724;9.898;2024-02-21T09:03:37;7.88;;;2.20;;
40515;SDS011;26216;53.724;9.898;2024-02-21T09:06:07;16.63;;;3.53;;
40515;SDS011;26216;53.724;9.898;2024-02-21T09:08:34;7.90;;;2.20;;
40515;SDS011;26216;53.724;9.898;2024-02-21T09:11:01;11.93;;;2.58;;
40515;SDS011;26216;53.724;9.898;2024-02-21T09:13:27;7.10;;;2.35;;
40515;SDS011;26216;53.724;9.898;2024-02-21T09:15:56;10.82;;;2.42;;
40515;SDS011;26216;53.724;9.898;2024-02-21T09:18:22;6.97;;;2.35;;
40515;SDS011;26216;53.724;9.898;2024-02-21T09:20:49;9.90;;;2.63;;
40515;SDS011;26216;53.724;9.898;2024-02-21T09:23:15;10.35;;;2.55;;
40515;SDS011;26216;53.724;9.898;2024-02-21T09:25:42;9.52;;;2.20;;
40515;SDS011;26216;53.724;9.898;2024-02-21T09:28:08;9.30;;;3.17;;
40515;SDS011;26216;53.724;9.898;2024-02-21T09:30:35;6.90;;;2.40;;
40515;SDS011;26216;53.724;9.898;2024-02-21T09:33:03;5.88;;;1.95;;
40515;SDS011;26216;53.724;9.898;2024-02-21T09:35:30;8.00;;;2.53;;
40515;SDS011;26216;53.724;9.898;2024-02-21T09:38:00;8.98;;;2.38;;
40515;SDS011;26216;53.724;9.898;2024-02-21T09:40:30;7.07;;;1.98;;
40515;SDS011;26216;53.724;9.898;2024-02-21T09:43:03;6.85;;;2.30;;
40515;SDS011;26216;53.724;9.898;2024-02-21T09:45:32;6.65;;;2.10;;
40515;SDS011;26216;53.724;9.898;2024-02-21T09:51:05;7.85;;;2.28;;
40515;SDS011;26216;53.724;9.898;2024-02-21T09:53:32;7.75;;;2.35;;
40515;SDS011;26216;53.724;9.898;2024-02-21T09:56:04;8.98;;;2.70;;
40515;SDS011;26216;53.724;9.898;2024-02-21T09:58:36;6.47;;;1.70;;
40515;SDS011;26216;53.724;9.898;2024-02-21T10:01:02;6.03;;;1.85;;
40515;SDS011;26216;53.724;9.898;2024-02-21T10:03:32;6.15;;;2.10;;
40515;SDS011;26216;53.724;9.898;2024-02-21T10:06:01;7.20;;;2.10;;
40515;SDS011;26216;53.724;9.898;2024-02-21T10:08:28;5.60;;;1.67;;
40515;SDS011;26216;53.724;9.898;2024-02-21T10:10:54;4.47;;;1.40;;
40515;SDS011;26216;53.724;9.898;2024-02-21T10:13:28;4.28;;;1.50;;
40515;SDS011;26216;53.724;9.898;2024-02-21T10:16:04;3.20;;;1.45;;
40515;SDS011;26216;53.724;9.898;2024-02-21T10:18:32;9.20;;;2.60;;
40515;SDS011;26216;53.724;9.898;2024-02-21T10:21:05;5.68;;;2.10;;
40515;SDS011;26216;53.724;9.898;2024-02-21T10:23:45;4.95;;;2.20;;
40515;SDS011;26216;53.724;9.898;2024-02-21T10:26:14;3.92;;;1.38;;
40515;SDS011;26216;53.724;9.898;2024-02-21T10:28:41;4.22;;;1.90;;
40515;SDS011;26216;53.724;9.898;2024-02-21T10:31:10;5.22;;;1.75;;
40515;SDS011;26216;53.724;9.898;2024-02-21T10:33:37;6.43;;;2.00;;
40515;SDS011;26216;53.724;9.898;2024-02-21T10:36:10;4.22;;;1.50;;
40515;SDS011;26216;53.724;9.898;2024-02-21T10:38:39;3.67;;;1.45;;
40515;SDS011;26216;53.724;9.898;2024-02-21T10:41:08;3.67;;;1.55;;
40515;SDS011;26216;53.724;9.898;2024-02-21T10:43:40;2.28;;;1.17;;
40515;SDS011;26216;53.724;9.898;2024-02-21T10:46:07;3.10;;;1.42;;
40515;SDS011;26216;53.724;9.898;2024-02-21T10:48:44;3.30;;;1.05;;
40515;SDS011;26216;53.724;9.898;2024-02-21T10:54:13;2.63;;;1.30;;
40515;SDS011;26216;53.724;9.898;2024-02-21T10:56:54;2.47;;;1.60;;
40515;SDS011;26216;53.724;9.898;2024-02-21T10:59:24;2.80;;;1.65;;
40515;SDS011;26216;53.724;9.898;2024-02-21T11:01:51;3.40;;;1.88;;
40515;SDS011;26216;53.724;9.898;2024-02-21T11:04:18;3.47;;;2.50;;
40515;SDS011;26216;53.724;9.898;2024-02-21T11:06:45;4.18;;;3.00;;
40515;SDS011;26216;53.724;9.898;2024-02-21T11:09:12;4.85;;;3.08;;
40515;SDS011;26216;53.724;9.898;2024-02-21T11:11:39;5.30;;;3.70;;
40515;SDS011;26216;53.724;9.898;2024-02-21T11:14:07;5.15;;;4.00;;
40515;SDS011;26216;53.724;9.898;2024-02-21T11:16:38;5.97;;;4.40;;
40515;SDS011;26216;53.724;9.898;2024-02-21T11:19:06;6.25;;;4.75;;
40515;SDS011;26216;53.724;9.898;2024-02-21T11:21:34;6.93;;;4.57;;
40515;SDS011;26216;53.724;9.898;2024-02-21T11:24:11;6.75;;;5.03;;
40515;SDS011;26216;53.724;9.898;2024-02-21T11:26:37;6.00;;;4.85;;
40515;SDS011;26216;53.724;9.898;2024-02-21T11:29:04;6.65;;;5.30;;
40515;SDS011;26216;53.724;9.898;2024-02-21T11:31:40;7.75;;;6.10;;
40515;SDS011;26216;53.724;9.898;2024-02-21T11:34:08;9.95;;;5.80;;
40515;SDS011;26216;53.724;9.898;2024-02-21T11:36:36;7.70;;;6.18;;
40515;SDS011;26216;53.724;9.898;2024-02-21T11:39:12;10.60;;;6.90;;
40515;SDS011;26216;53.724;9.898;2024-02-21T11:41:42;10.05;;;6.90;;
40515;SDS011;26216;53.724;9.898;2024-02-21T11:44:08;15.38;;;9.95;;
40515;SDS011;26216;53.724;9.898;2024-02-21T11:46:44;11.93;;;9.13;;
40515;SDS011;26216;53.724;9.898;2024-02-21T11:49:12;13.52;;;10.15;;
40515;SDS011;26216;53.724;9.898;2024-02-21T11:51:41;12.85;;;9.88;;
40515;SDS011;26216;53.724;9.898;2024-02-21T11:54:13;12.93;;;10.60;;
40515;SDS011;26216;53.724;9.898;2024-02-21T11:56:45;12.85;;;10.68;;
40515;SDS011;26216;53.724;9.898;2024-02-21T11:59:14;13.57;;;11.00;;
40515;SDS011;26216;53.724;9.898;2024-02-21T12:01:40;14.38;;;11.90;;
40515;SDS011;26216;53.724;9.898;2024-02-21T12:04:07;12.25;;;10.48;;
40515;SDS011;26216;53.724;9.898;2024-02-21T12:06:33;13.45;;;10.98;;
40515;SDS011;26216;53.724;9.898;2024-02-21T12:09:01;15.15;;;12.70;;
40515;SDS011;26216;53.724;9.898;2024-02-21T12:11:28;14.40;;;12.27;;
40515;SDS011;26216;53.724;9.898;2024-02-21T12:14:02;12.90;;;10.27;;
40515;SDS011;26216;53.724;9.898;2024-02-21T12:16:31;13.40;;;10.45;;
40515;SDS011;26216;53.724;9.898;2024-02-21T12:19:01;13.38;;;11.10;;
40515;SDS011;26216;53.724;9.898;2024-02-21T12:21:31;12.38;;;9.93;;
40515;SDS011;26216;53.724;9.898;2024-02-21T12:24:18;15.40;;;11.52;;
40515;SDS011;26216;53.724;9.898;2024-02-21T12:26:51;13.88;;;10.68;;
40515;SDS011;26216;53.724;9.898;2024-02-21T12:29:20;13.80;;;10.48;;
40515;SDS011;26216;53.724;9.898;2024-02-21T12:31:48;10.95;;;9.20;;
40515;SDS011;26216;53.724;9.898;2024-02-21T12:34:16;11.70;;;8.95;;
40515;SDS011;26216;53.724;9.898;2024-02-21T12:36:52;10.18;;;8.00;;
40515;SDS011;26216;53.724;9.898;2024-02-21T12:39:19;11.43;;;8.73;;
40515;SDS011;26216;53.724;9.898;2024-02-21T12:41:45;10.38;;;7.57;;
40515;SDS011;26216;53.724;9.898;2024-02-21T12:44:11;11.15;;;7.80;;
40515;SDS011;26216;53.724;9.898;2024-02-21T12:46:38;10.80;;;8.15;;
40515;SDS011;26216;53.724;9.898;2024-02-21T12:49:14;10.77;;;8.27;;
40515;SDS011;26216;53.724;9.898;2024-02-21T12:51:44;11.20;;;8.68;;
40515;SDS011;26216;53.724;9.898;2024-02-21T12:54:13;11.23;;;8.75;;
40515;SDS011;26216;53.724;9.898;2024-02-21T12:56:39;12.15;;;8.63;;
40515;SDS011;26216;53.724;9.898;2024-02-21T12:59:07;10.27;;;8.27;;
40515;SDS011;26216;53.724;9.898;2024-02-21T13:01:34;12.43;;;8.90;;
40515;SDS011;26216;53.724;9.898;2024-02-21T13:04:01;10.65;;;8.43;;
40515;SDS011;26216;53.724;9.898;2024-02-21T13:06:29;9.93;;;7.70;;
40515;SDS011;26216;53.724;9.898;2024-02-21T13:08:55;10.60;;;8.07;;
40515;SDS011;26216;53.724;9.898;2024-02-21T13:11:21;9.38;;;7.72;;
40515;SDS011;26216;53.724;9.898;2024-02-21T13:13:52;14.03;;;8.00;;
40515;SDS011;26216;53.724;9.898;2024-02-21T13:16:18;11.85;;;7.88;;
40515;SDS011;26216;53.724;9.898;2024-02-21T13:18:45;9.68;;;7.20;;
40515;SDS011;26216;53.724;9.898;2024-02-21T13:21:13;11.90;;;8.43;;
40515;SDS011;26216;53.724;9.898;2024-02-21T13:23:40;15.45;;;9.20;;
40515;SDS011;26216;53.724;9.898;2024-02-21T13:26:06;11.73;;;7.63;;
40515;SDS011;26216;53.724;9.898;2024-02-21T13:28:37;10.57;;;7.80;;
40515;SDS011;26216;53.724;9.898;2024-02-21T13:31:04;10.30;;;7.32;;
40515;SDS011;26216;53.724;9.898;2024-02-21T13:33:34;10.00;;;7.78;;
40515;SDS011;26216;53.724;9.898;2024-02-21T13:36:01;10.65;;;7.57;;
40515;SDS011;26216;53.724;9.898;2024-02-21T13:38:29;8.80;;;6.75;;
40515;SDS011;26216;53.724;9.898;2024-02-21T13:40:58;10.02;;;7.28;;
40515;SDS011;26216;53.724;9.898;2024-02-21T13:43:28;10.23;;;7.82;;
40515;SDS011;26216;53.724;9.898;2024-02-21T13:45:59;11.32;;;7.72;;
40515;SDS011;26216;53.724;9.898;2024-02-21T13:48:30;12.02;;;7.10;;
40515;SDS011;26216;53.724;9.898;2024-02-21T13:50:58;11.10;;;8.18;;
40515;SDS011;26216;53.724;9.898;2024-02-21T13:53:28;11.38;;;8.15;;
40515;SDS011;26216;53.724;9.898;2024-02-21T13:55:55;10.98;;;8.45;;
40515;SDS011;26216;53.724;9.898;2024-02-21T13:58:22;10.85;;;7.57;;
40515;SDS011;26216;53.724;9.898;2024-02-21T14:00:49;11.23;;;6.95;;
40515;SDS011;26216;53.724;9.898;2024-02-21T14:03:16;8.98;;;6.85;;
40515;SDS011;26216;53.724;9.898;2024-02-21T14:05:44;9.82;;;8.00;;
40515;SDS011;26216;53.724;9.898;2024-02-21T14:08:11;10.63;;;7.47;;
40515;SDS011;26216;53.724;9.898;2024-02-21T14:10:38;12.43;;;7.68;;
40515;SDS011;26216;53.724;9.898;2024-02-21T14:13:04;10.75;;;7.05;;
40515;SDS011;26216;53.724;9.898;2024-02-21T14:15:31;9.15;;;7.15;;
40515;SDS011;26216;53.724;9.898;2024-02-21T14:17:58;8.27;;;6.60;;
40515;SDS011;26216;53.724;9.898;2024-02-21T14:20:24;12.15;;;8.27;;
40515;SDS011;26216;53.724;9.898;2024-02-21T14:22:52;11.82;;;7.40;;
40515;SDS011;26216;53.724;9.898;2024-02-21T14:25:19;10.98;;;6.82;;
40515;SDS011;26216;53.724;9.898;2024-02-21T14:27:45;9.18;;;6.63;;
40515;SDS011;26216;53.724;9.898;2024-02-21T14:30:13;9.50;;;6.72;;
40515;SDS011;26216;53.724;9.898;2024-02-21T14:32:40;9.70;;;6.60;;
40515;SDS011;26216;53.724;9.898;2024-02-21T14:35:10;9.32;;;7.30;;
40515;SDS011;26216;53.724;9.898;2024-02-21T14:37:36;10.10;;;6.88;;
40515;SDS011;26216;53.724;9.898;2024-02-21T14:40:04;9.45;;;6.35;;
40515;SDS011;26216;53.724;9.898;2024-02-21T14:42:34;9.95;;;6.75;;
40515;SDS011;26216;53.724;9.898;2024-02-21T14:45:01;8.98;;;7.25;;
40515;SDS011;26216;53.724;9.898;2024-02-21T14:47:32;9.60;;;6.45;;